Time;durP1;ratioP1;P1;durP2;ratioP2;P2;SDS_P1;SDS_P2;PMS_P1;PMS_P2;Temp;Humidity;BMP_temperature;BMP_pressure;BME280_temperature;BME280_humidity;BME280_pressure;Samples;Min_cycle;Max_cycle;Signal;HPM_P1;HPM_P2
2021/08/28 00:00:28;;;;;;;2.70;1.37;;;;;;;12.14;82.49;95641.34;5034023;28;20261;-80
2021/08/28 00:02:53;;;;;;;4.20;1.70;;;;;;;12.16;82.33;95642.00;5033960;28;20189;-79
2021/08/28 00:05:19;;;;;;;2.53;1.63;;;;;;;12.24;82.03;95637.81;5017672;28;20209;-79
2021/08/28 00:07:44;;;;;;;5.00;1.67;;;;;;;12.21;82.03;95640.75;5017609;28;20697;-79
2021/08/28 00:10:10;;;;;;;4.60;1.60;;;;;;;12.15;82.30;95642.97;5017324;28;20188;-79
2021/08/28 00:12:35;;;;;;;2.67;1.47;;;;;;;12.17;82.57;95638.44;5048635;28;20181;-80
2021/08/28 00:15:01;;;;;;;4.13;1.80;;;;;;;12.21;82.32;95643.34;5018391;28;20177;-81
2021/08/28 00:17:32;;;;;;;3.03;2.37;;;;;;;12.14;82.76;95641.34;5033951;28;20213;-81
2021/08/28 00:20:05;;;;;;;3.67;1.70;;;;;;;12.14;82.60;95638.75;5035006;28;20177;-79
2021/08/28 00:22:31;;;;;;;2.57;1.90;;;;;;;12.12;82.95;95635.47;5033060;28;20307;-78
2021/08/28 00:24:56;;;;;;;2.97;1.50;;;;;;;12.12;82.96;95632.88;5051733;28;20288;-81
2021/08/28 00:27:21;;;;;;;3.43;1.80;;;;;;;12.12;83.09;95643.28;5017150;28;20275;-79
2021/08/28 00:29:47;;;;;;;2.63;1.83;;;;;;;12.09;83.63;95642.78;5050314;28;20319;-81
2021/08/28 00:32:12;;;;;;;2.47;1.97;;;;;;;12.07;83.68;95637.72;5049608;28;20182;-79
2021/08/28 00:34:37;;;;;;;3.87;2.07;;;;;;;12.08;83.72;95641.13;5033815;28;20182;-79
2021/08/28 00:37:03;;;;;;;3.07;1.77;;;;;;;12.05;83.86;95633.66;5017446;28;20255;-79
2021/08/28 00:39:28;;;;;;;2.97;1.87;;;;;;;12.08;83.91;95638.53;5017153;28;20210;-80
2021/08/28 00:41:53;;;;;;;5.13;2.50;;;;;;;12.00;84.44;95636.69;5002572;28;20219;-80
2021/08/28 00:44:19;;;;;;;2.67;2.03;;;;;;;11.99;84.48;95639.47;4980878;28;20230;-79
2021/08/28 00:46:44;;;;;;;3.20;2.27;;;;;;;12.02;84.53;95646.97;4997751;28;20230;-79
2021/08/28 00:49:09;;;;;;;4.80;2.20;;;;;;;11.95;84.73;95638.97;5015347;28;20207;-81
2021/08/28 00:51:36;;;;;;;4.73;2.17;;;;;;;12.00;84.56;95636.69;4997635;28;20532;-79
2021/08/28 00:54:01;;;;;;;3.33;2.40;;;;;;;12.01;84.72;95642.72;4997912;28;20186;-79
2021/08/28 00:56:28;;;;;;;4.60;2.90;;;;;;;11.97;84.38;95639.63;4999145;28;20206;-80
2021/08/28 00:58:53;;;;;;;6.30;2.80;;;;;;;12.00;84.54;95641.91;4999134;28;20213;-79
2021/08/28 01:01:20;;;;;;;3.77;3.27;;;;;;;11.97;84.57;95649.22;4981169;28;20179;-80
2021/08/28 01:03:49;;;;;;;4.37;2.73;;;;;;;11.93;84.66;95643.50;4997425;28;20265;-80
2021/08/28 01:06:21;;;;;;;3.43;2.60;;;;;;;11.99;84.74;95642.88;4981568;28;20644;-78
2021/08/28 01:09:09;;;;;;;3.53;2.67;;;;;;;12.04;84.24;95639.84;4981442;28;20990;-81
2021/08/28 01:11:41;;;;;;;5.97;3.00;;;;;;;11.97;84.12;95647.44;4980730;28;20186;-79
2021/08/28 01:14:13;;;;;;;4.20;3.63;;;;;;;11.96;84.32;95647.59;4979780;28;20326;-81
2021/08/28 01:16:40;;;;;;;6.70;3.27;;;;;;;11.90;84.38;95644.63;4997512;28;20171;-79
2021/08/28 01:19:07;;;;;;;7.03;3.03;;;;;;;11.89;84.59;95640.38;4997311;28;20199;-80
2021/08/28 01:21:35;;;;;;;4.43;2.90;;;;;;;11.91;84.73;95648.03;4996842;28;20187;-80
2021/08/28 01:24:03;;;;;;;4.93;2.70;;;;;;;11.93;84.56;95645.28;4997332;28;20279;-80
2021/08/28 01:26:40;;;;;;;3.90;2.87;;;;;;;11.90;85.10;95636.81;4981306;28;20245;-79
2021/08/28 01:29:15;;;;;;;3.73;3.00;;;;;;;11.91;84.64;95637.63;4997110;28;20551;-80
2021/08/28 01:31:41;;;;;;;5.53;3.30;;;;;;;11.87;84.63;95631.91;4980504;28;20214;-80
2021/08/28 01:34:07;;;;;;;6.20;3.70;;;;;;;11.85;85.16;95628.66;4986245;28;20806;-80
2021/08/28 01:36:33;;;;;;;4.83;3.37;;;;;;;11.88;84.91;95632.72;4997231;28;20175;-80
2021/08/28 01:39:00;;;;;;;4.87;3.57;;;;;;;11.90;84.96;95630.78;4997162;28;20610;-79
2021/08/28 01:41:26;;;;;;;4.73;3.80;;;;;;;11.79;85.54;95634.44;4980267;28;20187;-80
2021/08/28 01:43:52;;;;;;;6.40;4.20;;;;;;;11.85;84.92;95631.28;4997135;28;20186;-79
2021/08/28 01:46:17;;;;;;;6.50;4.53;;;;;;;11.83;84.98;95630.56;4997161;28;20171;-79
2021/08/28 01:48:42;;;;;;;6.50;4.20;;;;;;;11.85;84.99;95633.88;4996817;28;20218;-79
2021/08/28 01:51:08;;;;;;;5.27;3.80;;;;;;;11.86;85.19;95635.50;4997006;28;20175;-79
2021/08/28 01:53:33;;;;;;;6.50;4.97;;;;;;;11.83;85.39;95630.56;4996840;28;20207;-80
2021/08/28 01:55:58;;;;;;;6.00;4.60;;;;;;;11.80;85.56;95638.69;4995589;28;20183;-80
2021/08/28 01:58:26;;;;;;;6.70;4.50;;;;;;;11.75;85.74;95633.13;4980528;28;20581;-80
2021/08/28 02:00:51;;;;;;;6.17;4.53;;;;;;;11.76;86.14;95634.75;4996775;28;20179;-81
2021/08/28 02:03:16;;;;;;;4.80;4.30;;;;;;;11.75;85.90;95633.13;4996031;28;20185;-77
2021/08/28 02:05:47;;;;;;;5.33;4.63;;;;;;;11.78;85.80;95630.22;4980318;28;20272;-79
2021/08/28 02:08:21;;;;;;;5.37;4.47;;;;;;;11.73;86.29;95629.03;4980556;28;20242;-79
2021/08/28 02:10:51;;;;;;;5.43;4.50;;;;;;;11.77;85.92;95627.75;4996947;28;20182;-80
2021/08/28 02:13:25;;;;;;;6.20;5.30;;;;;;;11.74;86.04;95628.88;4978399;28;20266;-80
2021/08/28 02:15:53;;;;;;;8.73;6.57;;;;;;;11.71;86.84;95630.97;4980228;28;20183;-80
2021/08/28 02:18:29;;;;;;;8.93;5.73;;;;;;;11.81;86.29;95631.72;4996406;28;20191;-78
2021/08/28 02:20:57;;;;;;;6.80;5.50;;;;;;;11.79;86.06;95631.84;4996273;28;20228;-79
2021/08/28 02:23:28;;;;;;;8.10;5.37;;;;;;;11.79;86.40;95637.03;4979493;28;20172;-78
2021/08/28 02:26:01;;;;;;;7.10;5.77;;;;;;;11.77;86.23;95636.38;4996282;28;20203;-81
2021/08/28 02:28:33;;;;;;;8.47;6.23;;;;;;;11.76;86.12;95636.53;4979981;28;20219;-79
2021/08/28 02:31:00;;;;;;;8.00;6.17;;;;;;;11.69;86.51;95636.31;4996166;28;20171;-80
2021/08/28 02:33:25;;;;;;;9.17;6.07;;;;;;;11.72;86.69;95640.41;4995553;28;20186;-78
2021/08/28 02:35:50;;;;;;;7.53;6.70;;;;;;;11.67;86.82;95638.28;5013702;28;20179;-80
2021/08/28 02:38:16;;;;;;;8.13;7.07;;;;;;;11.73;86.45;95636.81;4979624;28;20199;-80
2021/08/28 02:40:45;;;;;;;8.47;7.50;;;;;;;11.74;86.51;95641.06;4979711;28;20175;-80
2021/08/28 02:43:10;;;;;;;9.57;7.47;;;;;;;11.71;86.58;95638.78;4979045;28;20178;-80
2021/08/28 02:45:36;;;;;;;9.43;6.67;;;;;;;11.75;86.44;95627.06;4979314;28;20207;-80
2021/08/28 02:48:02;;;;;;;7.50;6.37;;;;;;;11.75;86.28;95627.06;4995869;28;20203;-80
2021/08/28 02:50:28;;;;;;;9.70;7.20;;;;;;;11.75;86.73;95624.47;4979624;28;20186;-80
2021/08/28 02:52:54;;;;;;;9.87;8.10;;;;;;;11.70;86.68;95629.34;4978990;28;20208;-80
2021/08/28 02:55:20;;;;;;;9.67;7.13;;;;;;;11.74;86.37;95630.66;4995821;28;20634;-80
2021/08/28 02:57:48;;;;;;;8.30;6.93;;;;;;;11.75;86.44;95621.88;4995776;28;20226;-80
2021/08/28 03:00:13;;;;;;;8.13;6.60;;;;;;;11.75;86.19;95616.66;4979413;28;20639;-80
2021/08/28 03:02:39;;;;;;;9.73;7.33;;;;;;;11.72;86.68;95620.41;4995432;28;20210;-80
2021/08/28 03:05:06;;;;;;;8.83;7.97;;;;;;;11.77;86.22;95614.75;4996619;28;20215;-81
2021/08/28 03:07:33;;;;;;;8.13;6.83;;;;;;;11.75;86.60;95620.13;4981312;28;20218;-80
2021/08/28 03:09:59;;;;;;;10.70;7.87;;;;;;;11.66;86.83;95618.44;4998529;28;20659;-81
2021/08/28 03:12:24;;;;;;;10.17;7.77;;;;;;;11.72;86.91;95614.38;4993632;28;20176;-81
2021/08/28 03:14:51;;;;;;;8.73;7.73;;;;;;;11.64;86.84;95612.53;4995463;28;20239;-81
2021/08/28 03:17:16;;;;;;;11.27;6.77;;;;;;;11.66;86.83;95609.78;4995595;28;20186;-80
2021/08/28 03:19:42;;;;;;;8.77;7.20;;;;;;;11.68;86.98;95610.47;4995459;28;20195;-80
2021/08/28 03:22:11;;;;;;;8.80;6.90;;;;;;;11.67;86.87;95612.25;4978506;28;20677;-80
2021/08/28 03:24:37;;;;;;;8.73;7.70;;;;;;;11.71;86.43;95616.19;4978972;28;20215;-79
2021/08/28 03:27:03;;;;;;;8.00;6.87;;;;;;;11.68;86.89;95607.88;4978969;28;20278;-80
2021/08/28 03:29:31;;;;;;;8.30;7.37;;;;;;;11.69;87.33;95614.69;4995422;28;20183;-79
2021/08/28 03:31:58;;;;;;;11.37;7.23;;;;;;;11.70;86.51;95611.13;4994497;28;20294;-81
2021/08/28 03:34:24;;;;;;;7.97;6.67;;;;;;;11.72;86.85;95607.41;4979164;28;20175;-81
2021/08/28 03:36:49;;;;;;;9.53;7.07;;;;;;;11.73;86.93;95609.03;4978718;28;20206;-79
2021/08/28 03:39:15;;;;;;;12.13;8.30;;;;;;;11.69;87.70;95607.72;4994782;28;20245;-80
2021/08/28 03:41:40;;;;;;;10.07;8.40;;;;;;;11.65;88.12;95606.38;5011818;28;20198;-80
2021/08/28 03:44:06;;;;;;;11.43;7.87;;;;;;;11.56;88.77;95602.91;4995225;28;20190;-80
2021/08/28 03:46:32;;;;;;;10.60;8.63;;;;;;;11.59;88.88;95607.81;4995066;28;20190;-80
2021/08/28 03:48:57;;;;;;;9.63;8.30;;;;;;;11.59;89.33;95605.22;4994826;28;20202;-80
2021/08/28 03:51:22;;;;;;;10.83;8.03;;;;;;;11.64;89.13;95615.97;4977966;28;20179;-80
2021/08/28 03:53:48;;;;;;;12.00;8.60;;;;;;;11.64;89.06;95610.75;4994792;28;20178;-80
2021/08/28 03:56:13;;;;;;;10.70;9.50;;;;;;;11.63;89.36;95606.53;4978492;28;20195;-80
2021/08/28 03:58:38;;;;;;;10.43;9.30;;;;;;;11.58;89.63;95605.38;4994505;28;20568;-80
2021/08/28 04:01:03;;;;;;;11.67;8.47;;;;;;;11.60;89.12;95606.03;4996255;28;20635;-81
2021/08/28 04:03:29;;;;;;;10.00;8.90;;;;;;;11.59;89.47;95607.81;4977940;28;20188;-80
2021/08/28 04:05:54;;;;;;;9.73;8.73;;;;;;;11.56;89.50;95608.09;4994758;28;20206;-79
2021/08/28 04:08:19;;;;;;;10.93;9.23;;;;;;;11.53;89.62;95611.00;4978499;28;20198;-80
2021/08/28 04:10:45;;;;;;;12.10;9.70;;;;;;;11.55;89.68;95610.84;4978476;28;20183;-79
2021/08/28 04:13:10;;;;;;;11.30;9.27;;;;;;;11.54;89.98;95607.44;4992759;28;20597;-80
2021/08/28 04:15:35;;;;;;;13.17;10.87;;;;;;;11.52;89.67;95606.78;5012132;28;20183;-80
2021/08/28 04:18:01;;;;;;;13.17;10.33;;;;;;;11.51;89.31;95606.94;4978130;28;20287;-80
2021/08/28 04:20:26;;;;;;;14.23;10.43;;;;;;;11.46;90.20;95611.75;4978310;28;20539;-78
2021/08/28 04:22:51;;;;;;;14.67;10.83;;;;;;;11.45;89.89;95612.72;4994101;28;20227;-80
2021/08/28 04:25:17;;;;;;;13.97;11.37;;;;;;;11.46;90.05;95609.97;5012152;28;20246;-79
2021/08/28 04:27:42;;;;;;;12.70;10.57;;;;;;;11.51;90.34;95612.13;4978581;28;20306;-80
2021/08/28 04:30:08;;;;;;;15.03;11.50;;;;;;;11.49;90.49;95612.28;4994590;28;20186;-80
2021/08/28 04:32:34;;;;;;;15.80;11.07;;;;;;;11.42;90.63;95611.25;4993906;28;20213;-79
2021/08/28 04:34:59;;;;;;;13.80;10.90;;;;;;;11.46;90.18;95614.38;4978457;28;20180;-79
2021/08/28 04:37:24;;;;;;;12.37;10.30;;;;;;;11.46;90.80;95617.78;4978151;28;20210;-80
2021/08/28 04:39:50;;;;;;;13.07;10.90;;;;;;;11.43;90.76;95620.69;4994440;28;20202;-80
2021/08/28 04:42:15;;;;;;;15.10;11.73;;;;;;;11.39;90.73;95623.72;4977618;28;20278;-80
2021/08/28 04:44:40;;;;;;;13.37;10.50;;;;;;;11.38;90.64;95628.13;4994325;28;20213;-80
2021/08/28 04:47:06;;;;;;;12.50;10.80;;;;;;;11.37;91.27;95625.66;4977930;28;20183;-79
2021/08/28 04:49:31;;;;;;;22.93;12.90;;;;;;;11.22;91.68;95626.22;4977813;28;20187;-80
2021/08/28 04:51:58;;;;;;;13.33;11.70;;;;;;;11.41;91.15;95625.22;4993610;28;20180;-79
2021/08/28 04:54:23;;;;;;;12.60;11.30;;;;;;;11.35;91.62;95625.81;4977851;28;20711;-78
2021/08/28 04:56:49;;;;;;;15.70;12.30;;;;;;;11.30;91.76;95628.88;4994299;28;20180;-79
2021/08/28 04:59:14;;;;;;;13.77;12.10;;;;;;;11.39;91.83;95632.34;4977866;28;20198;-79
2021/08/28 05:01:41;;;;;;;13.33;10.80;;;;;;;11.41;91.53;95630.44;4977235;28;20214;-79
2021/08/28 05:04:06;;;;;;;12.93;11.47;;;;;;;11.39;91.41;95628.94;4993936;28;20667;-78
2021/08/28 05:06:32;;;;;;;18.47;12.67;;;;;;;11.32;91.77;95631.34;4978194;28;20175;-82
2021/08/28 05:08:57;;;;;;;13.93;10.90;;;;;;;11.33;92.00;95632.97;4977867;28;20602;-78
2021/08/28 05:11:22;;;;;;;15.13;11.47;;;;;;;11.32;92.19;95637.34;4993628;28;20179;-79
2021/08/28 05:13:47;;;;;;;14.37;11.77;;;;;;;11.32;92.08;95641.72;4976486;28;20219;-80
2021/08/28 05:16:13;;;;;;;17.37;11.90;;;;;;;11.38;91.92;95635.91;4994094;28;20264;-80
2021/08/28 05:18:38;;;;;;;14.47;11.37;;;;;;;11.34;92.23;95640.59;4978796;28;20215;-80
2021/08/28 05:21:03;;;;;;;13.27;11.43;;;;;;;11.26;92.64;95643.13;4977923;28;20190;-80
2021/08/28 05:23:29;;;;;;;18.07;12.87;;;;;;;11.29;92.74;95647.22;5010792;28;20184;-80
2021/08/28 05:25:54;;;;;;;19.67;13.27;;;;;;;11.27;93.11;95647.38;4994068;28;20694;-80
2021/08/28 05:28:20;;;;;;;16.70;12.07;;;;;;;11.27;92.72;95652.56;4993939;28;20199;-80
2021/08/28 05:30:45;;;;;;;15.10;12.27;;;;;;;11.38;92.15;95653.31;4996333;28;20695;-79
2021/08/28 05:33:10;;;;;;;13.73;12.17;;;;;;;11.35;92.73;95652.63;5015427;28;20630;-80
2021/08/28 05:35:36;;;;;;;16.93;12.43;;;;;;;11.32;92.63;95652.94;5037300;28;20257;-79
2021/08/28 05:38:01;;;;;;;16.87;12.90;;;;;;;11.32;92.94;95657.34;5020846;28;20210;-79
2021/08/28 05:40:27;;;;;;;14.27;12.77;;;;;;;11.40;92.63;95662.59;5047150;28;20220;-80
2021/08/28 05:42:52;;;;;;;13.70;12.17;;;;;;;11.38;92.39;95661.91;5039603;28;20691;-80
2021/08/28 05:45:17;;;;;;;16.20;14.07;;;;;;;11.39;92.62;95662.72;5029260;28;20209;-79
2021/08/28 05:47:43;;;;;;;17.83;13.37;;;;;;;11.34;93.05;95656.22;5036532;28;20256;-80
2021/08/28 05:50:08;;;;;;;17.40;13.60;;;;;;;11.31;93.24;95663.50;5036644;28;20178;-79
2021/08/28 05:52:34;;;;;;;16.07;14.27;;;;;;;11.35;93.03;95659.63;5036254;28;20205;-79
2021/08/28 05:54:59;;;;;;;18.57;14.60;;;;;;;11.31;93.03;95669.50;5040609;28;20212;-80
2021/08/28 05:57:24;;;;;;;18.20;14.53;;;;;;;11.43;92.77;95667.50;5047564;28;20194;-79
2021/08/28 05:59:49;;;;;;;17.40;14.03;;;;;;;11.45;92.89;95668.16;5063635;28;20182;-79
2021/08/28 06:02:15;;;;;;;16.70;13.90;;;;;;;11.47;92.59;95665.41;5045823;28;20186;-80
2021/08/28 06:04:40;;;;;;;19.03;13.47;;;;;;;11.54;92.70;95662.06;5048263;28;20673;-78
2021/08/28 06:07:06;;;;;;;17.90;15.17;;;;;;;11.51;92.29;95662.38;5031178;28;20173;-78
2021/08/28 06:09:31;;;;;;;19.83;14.77;;;;;;;11.54;91.78;95661.25;5048260;28;20170;-80
2021/08/28 06:11:57;;;;;;;22.23;15.97;;;;;;;11.57;91.86;95666.97;5048965;28;20243;-77
2021/08/28 06:14:22;;;;;;;17.93;14.60;;;;;;;11.58;91.86;95670.38;5040997;28;20189;-77
2021/08/28 06:16:48;;;;;;;21.93;15.10;;;;;;;11.57;91.86;95659.16;5038475;28;20170;-77
2021/08/28 06:19:13;;;;;;;21.13;15.03;;;;;;;11.49;92.20;95666.09;5038489;28;20187;-77
2021/08/28 06:21:39;;;;;;;18.30;14.93;;;;;;;11.68;91.71;95667.69;5039745;28;20170;-77
2021/08/28 06:24:04;;;;;;;22.17;16.77;;;;;;;11.66;91.77;95667.00;5039780;28;20182;-77
2021/08/28 06:26:30;;;;;;;18.53;15.90;;;;;;;11.84;91.15;95662.66;5056244;28;20182;-77
2021/08/28 06:28:55;;;;;;;21.47;16.23;;;;;;;11.82;90.57;95660.16;5037799;28;20199;-77
2021/08/28 06:31:21;;;;;;;21.47;15.13;;;;;;;11.96;90.50;95669.22;5022234;28;20182;-77
2021/08/28 06:33:46;;;;;;;20.47;16.57;;;;;;;11.90;90.13;95667.22;5022620;28;20182;-77
2021/08/28 06:36:11;;;;;;;20.87;16.13;;;;;;;11.75;90.40;95660.91;5037307;28;20186;-77
2021/08/28 06:38:36;;;;;;;19.00;15.57;;;;;;;11.59;91.80;95657.22;5046247;28;20198;-78
2021/08/28 06:41:02;;;;;;;17.77;15.47;;;;;;;11.69;91.61;95664.94;5008146;28;20225;-79
2021/08/28 06:43:28;;;;;;;17.57;15.27;;;;;;;11.72;91.59;95663.81;5028940;28;20190;-78
2021/08/28 06:45:53;;;;;;;21.90;15.90;;;;;;;11.67;91.68;95658.25;5013530;28;20203;-78
2021/08/28 06:48:18;;;;;;;22.20;15.90;;;;;;;11.64;91.89;95656.75;5023541;28;20208;-79
2021/08/28 06:50:44;;;;;;;21.63;16.67;;;;;;;11.57;92.44;95666.13;5043803;28;20185;-78
2021/08/28 06:53:09;;;;;;;21.63;16.53;;;;;;;11.63;92.01;95662.94;5018864;28;20195;-79
2021/08/28 06:55:34;;;;;;;20.30;17.07;;;;;;;11.64;92.32;95660.19;5024238;28;20328;-79
2021/08/28 06:58:00;;;;;;;22.43;17.77;;;;;;;11.59;92.03;95659.84;5001958;28;20202;-78
2021/08/28 07:00:25;;;;;;;21.47;16.83;;;;;;;11.66;91.60;95662.66;5002468;28;20176;-79
2021/08/28 07:02:50;;;;;;;24.10;18.27;;;;;;;11.61;91.86;95662.28;4985629;28;20179;-77
2021/08/28 07:05:16;;;;;;;24.27;16.90;;;;;;;11.58;91.96;95660.81;4986278;28;20203;-78
2021/08/28 07:07:41;;;;;;;18.87;16.87;;;;;;;11.53;91.71;95670.81;5006609;28;20230;-77
2021/08/28 07:10:08;;;;;;;19.40;16.13;;;;;;;11.59;91.47;95670.22;5005573;28;20183;-77
2021/08/28 07:12:34;;;;;;;23.40;17.70;;;;;;;11.43;91.50;95664.91;4987090;28;20250;-78
2021/08/28 07:14:59;;;;;;;22.70;17.23;;;;;;;11.48;91.11;95667.84;5002085;28;20171;-78
2021/08/28 07:17:24;;;;;;;21.37;18.00;;;;;;;11.60;91.61;95665.84;5003090;28;20210;-78
2021/08/28 07:19:49;;;;;;;21.50;18.30;;;;;;;11.67;90.65;95661.69;4986627;28;20175;-78
2021/08/28 07:22:15;;;;;;;21.80;18.20;;;;;;;11.64;90.83;95660.19;5002637;28;20171;-78
2021/08/28 07:24:40;;;;;;;21.73;18.20;;;;;;;11.76;90.64;95662.56;5000774;28;20199;-77
2021/08/28 07:27:06;;;;;;;21.30;18.80;;;;;;;11.68;90.29;95665.09;5005495;28;20262;-78
2021/08/28 07:29:32;;;;;;;22.90;18.17;;;;;;;11.72;89.91;95669.84;5004251;28;20171;-78
2021/08/28 07:31:57;;;;;;;23.77;18.27;;;;;;;11.73;89.95;95668.03;5002933;28;20515;-78
2021/08/28 07:34:22;;;;;;;22.43;18.40;;;;;;;11.93;89.43;95659.13;5022354;28;20231;-77
2021/08/28 07:36:48;;;;;;;19.13;16.97;;;;;;;12.00;88.99;95661.91;5006156;28;20175;-78
2021/08/28 07:39:13;;;;;;;21.37;17.23;;;;;;;12.03;89.18;95662.44;5005701;28;20203;-78
2021/08/28 07:41:38;;;;;;;18.80;16.80;;;;;;;11.91;88.64;95664.47;4996820;28;20179;-76
2021/08/28 07:44:04;;;;;;;20.10;16.90;;;;;;;11.90;89.06;95662.84;4993934;28;20206;-75
2021/08/28 07:46:29;;;;;;;20.03;17.67;;;;;;;11.92;89.17;95667.88;4994908;28;20564;-77
2021/08/28 07:48:54;;;;;;;18.40;16.43;;;;;;;11.99;88.60;95670.69;4993897;28;20203;-78
2021/08/28 07:51:20;;;;;;;16.20;14.50;;;;;;;12.08;87.16;95670.59;4993373;28;20179;-78
2021/08/28 07:53:45;;;;;;;15.40;13.40;;;;;;;12.37;86.57;95672.88;4993039;28;20233;-77
2021/08/28 07:56:10;;;;;;;15.93;14.33;;;;;;;12.75;84.14;95668.16;4993977;28;20199;-78
2021/08/28 07:58:36;;;;;;;16.87;14.87;;;;;;;13.19;83.50;95670.53;5011549;28;20195;-78
2021/08/28 08:01:01;;;;;;;14.73;13.27;;;;;;;12.98;83.32;95676.19;4993821;28;20249;-79
2021/08/28 08:03:27;;;;;;;12.53;11.23;;;;;;;13.11;82.62;95667.91;4993523;28;20663;-78
2021/08/28 08:05:52;;;;;;;12.13;10.93;;;;;;;13.03;81.08;95669.53;4993844;28;20199;-79
2021/08/28 08:08:17;;;;;;;10.83;9.73;;;;;;;13.04;81.35;95671.16;4993905;28;20253;-78
2021/08/28 08:10:42;;;;;;;11.73;9.57;;;;;;;13.05;82.14;95674.56;4993979;28;20198;-79
2021/08/28 08:13:08;;;;;;;9.10;8.23;;;;;;;13.26;81.76;95682.00;5009397;28;20651;-78
2021/08/28 08:15:33;;;;;;;9.70;8.70;;;;;;;13.55;79.66;95674.50;4994909;28;20225;-81
2021/08/28 08:17:59;;;;;;;9.00;8.20;;;;;;;13.51;78.90;95680.22;5009814;23;20218;-77
2021/08/28 08:20:25;;;;;;;9.00;8.10;;;;;;;13.63;77.57;95678.94;5016152;28;20183;-77
2021/08/28 08:22:51;;;;;;;8.53;7.67;;;;;;;14.00;76.20;95677.59;4998985;28;20221;-77
2021/08/28 08:25:16;;;;;;;9.23;7.50;;;;;;;14.27;74.63;95679.81;4998123;28;20269;-77
2021/08/28 08:27:41;;;;;;;6.40;5.80;;;;;;;14.28;74.33;95678.03;4999831;28;20209;-79
2021/08/28 08:30:07;;;;;;;6.50;5.90;;;;;;;14.38;73.89;95681.25;5015600;28;20262;-79
2021/08/28 08:32:33;;;;;;;7.13;6.47;;;;;;;14.33;74.42;95681.78;5019114;28;20222;-79
2021/08/28 08:34:58;;;;;;;6.73;6.13;;;;;;;14.08;74.90;95683.63;5016379;28;20182;-77
2021/08/28 08:37:23;;;;;;;7.67;5.50;;;;;;;14.31;72.35;95683.75;5035194;28;20198;-77
2021/08/28 08:39:49;;;;;;;7.37;4.60;;;;;;;14.33;72.41;95683.56;5036486;28;20179;-77
2021/08/28 08:42:17;;;;;;;6.40;5.80;;;;;;;14.26;72.96;95682.59;5036063;28;20251;-80
2021/08/28 08:44:45;;;;;;;7.00;6.30;;;;;;;14.07;73.49;95686.41;5053227;28;20210;-79
2021/08/28 08:47:10;;;;;;;6.77;5.67;;;;;;;13.67;74.09;95684.63;5020419;28;20209;-77
2021/08/28 08:49:36;;;;;;;6.00;5.50;;;;;;;13.79;74.92;95691.16;5036332;28;20187;-80
2021/08/28 08:52:01;;;;;;;5.83;5.23;;;;;;;13.88;74.13;95690.19;5036789;28;20202;-79
2021/08/28 08:54:27;;;;;;;5.97;4.83;;;;;;;13.91;74.00;95686.41;5037393;28;20198;-80
2021/08/28 08:56:53;;;;;;;5.20;4.70;;;;;;;13.13;75.94;95690.22;5039156;28;20544;-80
2021/08/28 08:59:18;;;;;;;5.90;5.37;;;;;;;13.34;75.93;95689.84;5037884;28;20198;-78
2021/08/28 09:01:44;;;;;;;5.77;5.17;;;;;;;13.75;76.17;95695.06;5036951;28;20214;-76
2021/08/28 09:04:11;;;;;;;5.90;5.30;;;;;;;14.50;73.81;95694.84;5054311;28;20184;-78
2021/08/28 09:06:37;;;;;;;7.27;6.10;;;;;;;14.42;72.49;95693.84;5023395;28;20178;-80
2021/08/28 09:09:03;;;;;;;6.63;6.03;;;;;;;14.71;70.44;95695.06;5038417;28;20556;-79
2021/08/28 09:11:33;;;;;;;6.33;5.83;;;;;;;13.66;72.90;95693.44;5032309;28;20194;-80
2021/08/28 09:14:21;;;;;;;6.40;4.90;;;;;;;13.79;75.21;95684.16;5033370;28;20174;-81
2021/08/28 09:16:48;;;;;;;4.93;4.27;;;;;;;13.51;73.22;95686.25;5035097;28;20198;-78
2021/08/28 09:19:13;;;;;;;3.90;3.60;;;;;;;13.46;74.29;95691.16;5034670;28;20557;-76
2021/08/28 09:21:39;;;;;;;4.90;4.00;;;;;;;13.24;75.99;95691.75;5027866;28;20190;-79
2021/08/28 09:24:07;;;;;;;3.80;3.50;;;;;;;13.25;76.37;95694.22;5034559;28;20500;-80
2021/08/28 09:26:35;;;;;;;5.90;4.20;;;;;;;13.32;76.85;95699.59;5017455;28;20182;-80
2021/08/28 09:29:02;;;;;;;5.10;4.60;;;;;;;13.26;76.71;95692.44;5017630;28;20194;-81
2021/08/28 09:31:41;;;;;;;4.30;3.90;;;;;;;13.37;76.20;95699.13;5033981;28;20182;-83
2021/08/28 09:34:18;;;;;;;4.40;3.90;;;;;;;13.38;76.09;95696.34;5035271;28;20178;-81
2021/08/28 09:36:43;;;;;;;4.13;3.83;;;;;;;13.49;75.84;95697.81;5034909;28;20595;-79
2021/08/28 09:39:09;;;;;;;5.30;4.73;;;;;;;13.86;75.37;95699.94;5039636;28;20206;-78
2021/08/28 09:41:36;;;;;;;5.83;5.23;;;;;;;13.94;74.19;95704.34;5026070;28;20188;-79
2021/08/28 09:44:08;;;;;;;5.33;4.33;;;;;;;13.74;74.06;95696.84;5023228;28;20194;-79
2021/08/28 09:46:34;;;;;;;4.53;4.13;;;;;;;14.02;73.33;95694.72;5020665;28;20687;-79
2021/08/28 09:49:00;;;;;;;4.53;3.60;;;;;;;14.16;73.07;95699.28;5037107;28;20213;-78
2021/08/28 09:51:26;;;;;;;5.03;4.20;;;;;;;13.68;73.97;95697.50;5019642;28;20718;-78
2021/08/28 09:54:01;;;;;;;5.27;4.77;;;;;;;13.41;73.90;95693.41;5034939;28;20187;-79
2021/08/28 09:56:27;;;;;;;5.57;4.00;;;;;;;13.50;73.55;95691.63;5034551;28;20383;-78
2021/08/28 09:58:52;;;;;;;3.60;3.30;;;;;;;13.30;74.50;95698.94;5034607;28;20187;-79
2021/08/28 10:01:20;;;;;;;4.47;3.57;;;;;;;13.47;74.84;95700.59;5017529;28;20194;-78
2021/08/28 10:03:58;;;;;;;5.00;3.43;;;;;;;13.60;74.43;95700.94;5035478;28;20194;-78
2021/08/28 10:06:24;;;;;;;3.50;3.20;;;;;;;13.62;74.35;95702.56;5033294;28;20639;-80
2021/08/28 10:08:50;;;;;;;5.30;3.20;;;;;;;13.76;73.35;95704.53;5035134;28;20233;-79
2021/08/28 10:11:16;;;;;;;3.37;3.07;;;;;;;13.87;73.74;95697.19;5033462;28;20189;-79
2021/08/28 10:13:41;;;;;;;2.97;2.67;;;;;;;13.99;72.12;95707.28;5017314;28;20174;-79
2021/08/28 10:16:07;;;;;;;3.37;3.07;;;;;;;13.67;73.82;95706.31;5033803;28;20653;-79
2021/08/28 10:18:34;;;;;;;3.20;2.90;;;;;;;13.98;72.66;95703.88;5034172;28;20210;-79
2021/08/28 10:20:59;;;;;;;4.43;3.10;;;;;;;13.95;72.07;95704.19;5034206;28;20588;-78
2021/08/28 10:23:26;;;;;;;4.40;2.80;;;;;;;13.95;71.14;95701.56;5016465;28;20183;-79
2021/08/28 10:25:52;;;;;;;3.50;3.20;;;;;;;13.88;71.94;95709.25;5017315;28;20203;-79
2021/08/28 10:28:19;;;;;;;3.33;2.90;;;;;;;14.00;72.66;95707.13;5032971;28;20554;-78
2021/08/28 10:30:46;;;;;;;4.20;3.13;;;;;;;13.65;72.69;95702.25;5016188;28;20178;-77
2021/08/28 10:33:11;;;;;;;3.07;2.47;;;;;;;13.43;73.81;95707.13;5032214;28;20262;-78
2021/08/28 10:35:37;;;;;;;2.60;2.30;;;;;;;13.55;74.90;95713.66;5032504;28;20179;-77
2021/08/28 10:38:03;;;;;;;2.90;2.07;;;;;;;13.58;75.22;95702.06;5048737;28;20198;-78
2021/08/28 10:40:32;;;;;;;3.00;2.63;;;;;;;13.49;74.72;95710.88;5032079;28;20183;-77
2021/08/28 10:42:59;;;;;;;2.77;2.57;;;;;;;13.41;76.32;95713.47;5015023;28;20193;-78
2021/08/28 10:45:38;;;;;;;2.33;2.13;;;;;;;13.32;76.85;95708.22;5031694;28;20690;-79
2021/08/28 10:48:06;;;;;;;2.10;2.00;;;;;;;13.37;77.00;95709.56;5032059;28;20198;-78
2021/08/28 10:50:34;;;;;;;2.50;2.30;;;;;;;13.37;77.73;95707.75;5015385;28;20181;-79
2021/08/28 10:53:02;;;;;;;4.90;3.50;;;;;;;13.39;78.18;95713.63;5032722;28;20822;-79
2021/08/28 10:55:42;;;;;;;4.50;3.30;;;;;;;13.35;78.74;95712.31;5031927;28;20240;-78
2021/08/28 10:58:11;;;;;;;4.90;4.50;;;;;;;13.16;79.42;95712.56;5017196;28;20202;-79
2021/08/28 11:00:46;;;;;;;5.37;4.80;;;;;;;13.11;79.78;95718.28;5033457;28;20295;-80
2021/08/28 11:03:26;;;;;;;5.03;4.10;;;;;;;13.07;80.47;95713.50;5015676;28;20178;-80
2021/08/28 11:06:16;;;;;;;4.63;4.23;;;;;;;12.92;80.62;95721.97;5014288;28;20283;-80
2021/08/28 11:08:55;;;;;;;5.17;4.67;;;;;;;12.97;80.94;95724.06;5037041;28;20210;-81
2021/08/28 11:11:38;;;;;;;5.10;4.70;;;;;;;13.05;80.82;95716.28;5021508;28;20182;-77
2021/08/28 11:14:06;;;;;;;4.27;3.87;;;;;;;13.09;80.42;95715.00;5037429;28;20175;-80
2021/08/28 11:16:40;;;;;;;4.07;3.77;;;;;;;13.08;80.60;95709.97;5032524;28;20188;-76
2021/08/28 11:19:07;;;;;;;4.77;4.27;;;;;;;13.01;81.10;95702.75;5032044;28;20202;-76
2021/08/28 11:21:46;;;;;;;5.07;4.30;;;;;;;13.11;80.38;95709.63;5041399;28;20245;-79
2021/08/28 11:24:13;;;;;;;4.13;3.77;;;;;;;13.11;80.46;95707.03;5025503;28;20198;-76